createdAt,value
2022-10-20T00:01:09.954Z,6.28
2022-10-20T00:03:37.582Z,5.72
2022-10-20T00:06:13.322Z,7.10
2022-10-20T00:08:41.356Z,7.15
2022-10-20T00:11:09.730Z,6.97
2022-10-20T00:13:37.231Z,6.13
2022-10-20T00:16:04.212Z,6.43
2022-10-20T00:18:31.182Z,7.05
2022-10-20T00:20:58.272Z,7.50
2022-10-20T00:23:25.064Z,6.95
2022-10-20T00:26:22.782Z,6.68
2022-10-20T00:28:50.507Z,7.35
2022-10-20T00:31:19.510Z,7.00
2022-10-20T00:33:46.974Z,7.03
2022-10-20T00:36:16.282Z,6.72
2022-10-20T00:38:43.308Z,6.15
2022-10-20T00:41:13.882Z,7.07
2022-10-20T00:43:51.734Z,7.03
2022-10-20T00:46:28.823Z,6.63
2022-10-20T00:48:58.662Z,6.38
2022-10-20T00:51:29.051Z,6.78
2022-10-20T00:54:12.684Z,6.93
2022-10-20T00:56:43.539Z,6.47
2022-10-20T00:59:14.265Z,6.90
2022-10-20T01:01:45.148Z,5.63
2022-10-20T01:04:12.585Z,6.47
2022-10-20T01:06:39.910Z,6.60
2022-10-20T01:09:07.290Z,5.45
2022-10-20T01:11:58.203Z,5.88
2022-10-20T01:14:57.160Z,5.72
2022-10-20T01:17:33.606Z,6.80
2022-10-20T01:21:02.177Z,7.18
2022-10-20T01:23:56.070Z,6.30
2022-10-20T01:26:58.474Z,5.65
2022-10-20T01:29:42.314Z,6.18
2022-10-20T01:32:15.327Z,6.47
2022-10-20T01:34:52.104Z,5.60
2022-10-20T01:37:47.547Z,5.78
2022-10-20T01:40:18.250Z,6.70
2022-10-20T01:42:49.429Z,6.40
2022-10-20T01:45:19.547Z,7.50
2022-10-20T01:47:48.623Z,6.45
2022-10-20T01:50:17.105Z,6.40
2022-10-20T01:52:44.028Z,6.50
2022-10-20T01:55:16.440Z,7.15
2022-10-20T01:58:01.927Z,6.53
2022-10-20T02:00:28.805Z,6.78
2022-10-20T02:03:04.514Z,7.00
2022-10-20T02:06:15.782Z,5.43
2022-10-20T02:08:56.220Z,6.47
2022-10-20T02:11:31.982Z,6.70
2022-10-20T02:13:59.876Z,6.57
2022-10-20T02:16:34.141Z,5.90
2022-10-20T02:19:01.946Z,5.78
2022-10-20T02:21:31.643Z,5.55
2022-10-20T02:24:03.689Z,6.32
2022-10-20T02:26:32.942Z,6.35
2022-10-20T02:29:04.993Z,6.53
2022-10-20T02:31:32.129Z,7.55
2022-10-20T02:33:59.033Z,6.60
2022-10-20T02:36:28.675Z,6.55
2022-10-20T02:38:56.093Z,6.03
2022-10-20T02:41:23.010Z,6.57
2022-10-20T02:43:49.816Z,7.38
2022-10-20T02:46:17.371Z,6.97
2022-10-20T02:48:44.367Z,6.85
2022-10-20T02:51:11.845Z,4.85
2022-10-20T02:53:38.739Z,6.70
2022-10-20T02:56:05.687Z,6.38
2022-10-20T02:58:32.503Z,6.88
2022-10-20T03:00:59.195Z,6.03
2022-10-20T03:03:26.117Z,6.50
2022-10-20T03:05:52.810Z,6.15
2022-10-20T03:08:19.820Z,5.63
2022-10-20T03:10:46.544Z,6.53
2022-10-20T03:13:14.926Z,5.95
2022-10-20T03:15:41.892Z,5.60
2022-10-20T03:18:10.006Z,6.07
2022-10-20T03:20:36.920Z,6.95
2022-10-20T03:23:03.746Z,5.55
2022-10-20T03:25:31.604Z,6.88
2022-10-20T03:27:58.794Z,5.75
2022-10-20T03:30:26.941Z,6.50
2022-10-20T03:32:53.798Z,5.28
2022-10-20T03:35:20.654Z,6.50
2022-10-20T03:37:47.450Z,5.57
2022-10-20T03:40:14.356Z,5.85
2022-10-20T03:42:41.123Z,5.90
2022-10-20T03:45:19.559Z,5.20
2022-10-20T03:47:46.276Z,6.10
2022-10-20T03:50:13.006Z,6.70
2022-10-20T03:52:39.738Z,5.43
2022-10-20T03:55:09.266Z,6.07
2022-10-20T03:57:36.290Z,6.25
2022-10-20T04:00:04.006Z,5.13
2022-10-20T04:02:38.076Z,6.38
2022-10-20T04:05:06.151Z,5.28
2022-10-20T04:07:33.127Z,6.47
2022-10-20T04:10:02.399Z,6.38
2022-10-20T04:12:29.677Z,5.90
2022-10-20T04:14:56.514Z,6.05
2022-10-20T04:17:23.528Z,5.82
2022-10-20T04:19:50.444Z,5.20
2022-10-20T04:22:17.208Z,5.47
2022-10-20T04:24:43.962Z,5.28
2022-10-20T04:27:13.236Z,5.60
2022-10-20T04:29:39.935Z,5.38
2022-10-20T04:32:07.052Z,6.00
2022-10-20T04:34:33.858Z,5.72
2022-10-20T04:37:02.827Z,5.75
2022-10-20T04:39:29.679Z,8.15
2022-10-20T04:41:57.523Z,6.07
2022-10-20T04:44:24.426Z,4.97
2022-10-20T04:46:51.135Z,5.50
2022-10-20T04:49:17.944Z,5.53
2022-10-20T04:51:45.799Z,6.10
2022-10-20T04:54:15.270Z,5.50
2022-10-20T04:56:42.276Z,6.10
2022-10-20T04:59:12.651Z,5.90
2022-10-20T05:01:40.723Z,6.03
2022-10-20T05:04:07.590Z,6.30
2022-10-20T05:06:34.690Z,5.43
2022-10-20T05:09:03.417Z,5.05
2022-10-20T05:11:31.222Z,5.47
2022-10-20T05:13:57.918Z,5.85
2022-10-20T05:16:25.164Z,5.57
2022-10-20T05:18:54.541Z,5.50
2022-10-20T05:21:25.760Z,5.45
2022-10-20T05:24:00.368Z,6.00
2022-10-20T05:26:29.418Z,5.30
2022-10-20T05:28:58.576Z,5.68
2022-10-20T05:31:27.530Z,5.38
2022-10-20T05:33:56.105Z,4.93
2022-10-20T05:36:29.843Z,5.70
2022-10-20T05:38:56.939Z,6.18
2022-10-20T05:41:34.849Z,7.13
2022-10-20T05:44:06.252Z,5.95
2022-10-20T05:46:35.248Z,5.97
2022-10-20T05:49:03.277Z,5.93
2022-10-20T05:51:33.580Z,6.75
2022-10-20T05:54:00.458Z,5.43
2022-10-20T05:56:31.114Z,6.50
2022-10-20T05:58:58.339Z,6.05
2022-10-20T06:01:27.517Z,7.60
2022-10-20T06:03:55.969Z,6.32
2022-10-20T06:06:26.106Z,6.57
2022-10-20T06:08:53.604Z,5.63
2022-10-20T06:11:24.230Z,6.50
2022-10-20T06:13:53.060Z,6.38
2022-10-20T06:16:22.412Z,6.35
2022-10-20T06:18:52.176Z,5.85
2022-10-20T06:21:28.254Z,6.53
2022-10-20T06:24:01.120Z,6.68
2022-10-20T06:26:32.834Z,6.93
2022-10-20T06:29:04.242Z,6.57
2022-10-20T06:31:39.499Z,6.28
2022-10-20T06:34:08.166Z,6.50
2022-10-20T06:36:39.078Z,6.28
2022-10-20T06:39:08.080Z,6.75
2022-10-20T06:41:35.309Z,6.40
2022-10-20T06:44:02.388Z,6.13
2022-10-20T06:46:32.417Z,6.72
2022-10-20T06:49:07.913Z,6.07
2022-10-20T06:51:38.228Z,6.35
2022-10-20T06:54:09.368Z,7.00
2022-10-20T06:56:39.173Z,6.47
2022-10-20T06:59:09.143Z,7.03
2022-10-20T07:01:39.632Z,6.68
2022-10-20T07:04:10.247Z,7.18
2022-10-20T07:06:43.391Z,6.90
2022-10-20T07:09:14.439Z,6.75
2022-10-20T07:11:41.791Z,6.85
2022-10-20T07:14:09.997Z,6.32
2022-10-20T07:16:39.005Z,6.68
2022-10-20T07:19:06.163Z,6.35
2022-10-20T07:21:36.588Z,7.55
2022-10-20T07:24:07.581Z,7.85
2022-10-20T07:26:38.941Z,6.72
2022-10-20T07:29:05.859Z,7.30
2022-10-20T07:31:46.452Z,6.63
2022-10-20T07:34:30.942Z,6.90
2022-10-20T07:36:57.839Z,6.88
2022-10-20T07:39:25.399Z,6.97
2022-10-20T07:41:52.086Z,6.10
2022-10-20T07:44:21.135Z,6.82
2022-10-20T07:46:48.034Z,7.20
2022-10-20T07:52:01.532Z,7.40
2022-10-20T07:54:28.197Z,6.95
2022-10-20T07:56:54.963Z,7.82
2022-10-20T07:59:21.701Z,6.95
2022-10-20T08:01:54.629Z,8.07
2022-10-20T08:04:23.013Z,7.75
2022-10-20T08:06:49.750Z,7.60
2022-10-20T08:09:16.493Z,7.97
2022-10-20T08:11:45.735Z,7.85
2022-10-20T08:14:15.017Z,6.78
2022-10-20T08:16:45.352Z,7.50
2022-10-20T08:19:21.092Z,7.10
2022-10-20T08:21:47.789Z,7.97
2022-10-20T08:24:14.586Z,7.72
2022-10-20T08:26:41.418Z,6.80
2022-10-20T08:29:09.033Z,7.40
2022-10-20T08:31:36.184Z,6.53
2022-10-20T08:34:05.338Z,7.45
2022-10-20T08:36:32.202Z,7.40
2022-10-20T08:39:05.105Z,7.80
2022-10-20T08:41:55.459Z,7.43
2022-10-20T08:44:34.385Z,6.82
2022-10-20T08:47:03.679Z,7.70
2022-10-20T08:49:34.606Z,7.30
2022-10-20T08:52:05.167Z,8.20
2022-10-20T08:54:37.776Z,8.10
2022-10-20T08:57:22.616Z,7.80
2022-10-20T08:59:52.833Z,6.20
2022-10-20T09:02:22.278Z,7.13
2022-10-20T09:04:56.486Z,7.32
2022-10-20T09:07:34.221Z,6.40
2022-10-20T09:10:16.561Z,6.93
2022-10-20T09:12:46.116Z,6.90
2022-10-20T09:15:15.056Z,7.63
2022-10-20T09:18:02.687Z,7.97
2022-10-20T09:20:36.446Z,7.82
2022-10-20T09:23:07.981Z,7.43
2022-10-20T09:25:45.121Z,7.85
2022-10-20T09:28:23.688Z,8.13
2022-10-20T09:30:50.714Z,6.85
2022-10-20T09:33:31.911Z,7.82
2022-10-20T09:36:05.741Z,7.53
2022-10-20T09:38:35.107Z,8.50
2022-10-20T09:41:08.129Z,7.20
2022-10-20T09:43:35.358Z,7.15
2022-10-20T09:46:09.470Z,7.97
2022-10-20T09:48:47.198Z,8.75
2022-10-20T09:51:25.775Z,8.30
2022-10-20T09:54:17.946Z,7.97
2022-10-20T09:56:46.890Z,7.50
2022-10-20T09:59:24.596Z,7.45
2022-10-20T10:01:58.121Z,8.80
2022-10-20T10:04:32.581Z,8.90
2022-10-20T10:06:59.431Z,7.90
2022-10-20T10:09:34.330Z,8.55
2022-10-20T10:12:11.780Z,8.57
2022-10-20T10:14:49.514Z,10.15
2022-10-20T10:17:36.835Z,9.43
2022-10-20T10:20:12.383Z,9.60
2022-10-20T10:22:43.765Z,9.05
2022-10-20T10:25:33.729Z,8.48
2022-10-20T10:28:09.344Z,10.30
2022-10-20T10:33:27.923Z,9.55
2022-10-20T10:35:55.049Z,9.65
2022-10-20T10:38:21.978Z,10.70
2022-10-20T10:41:06.578Z,11.35
2022-10-20T10:44:08.291Z,10.02
2022-10-20T10:46:54.810Z,11.15
2022-10-20T10:49:58.954Z,11.60
2022-10-20T10:52:46.792Z,10.75
2022-10-20T10:55:47.732Z,11.68
2022-10-20T10:58:38.547Z,10.45
2022-10-20T11:01:13.442Z,9.85
2022-10-20T11:03:49.145Z,10.85
2022-10-20T11:09:05.544Z,10.63
2022-10-20T11:11:44.255Z,11.80
2022-10-20T11:14:31.132Z,11.80
2022-10-20T11:17:04.175Z,12.48
2022-10-20T11:19:44.539Z,18.13
2022-10-20T11:22:36.269Z,13.25
2022-10-20T11:25:26.929Z,13.38
2022-10-20T11:27:56.706Z,12.70
2022-10-20T11:30:23.560Z,13.77
2022-10-20T11:33:03.121Z,12.80
2022-10-20T11:36:00.861Z,12.65
2022-10-20T11:38:41.815Z,11.38
2022-10-20T11:41:17.142Z,13.82
2022-10-20T11:43:57.432Z,12.93
2022-10-20T11:46:27.873Z,11.38
2022-10-20T11:48:57.368Z,14.20
2022-10-20T11:51:30.001Z,13.50
2022-10-20T11:54:30.288Z,14.27
2022-10-20T11:57:36.605Z,12.43
2022-10-20T12:00:22.951Z,12.80
2022-10-20T12:03:43.665Z,13.55
2022-10-20T12:06:49.055Z,13.43
2022-10-20T12:09:47.830Z,11.55
2022-10-20T12:12:31.876Z,13.85
2022-10-20T12:15:03.366Z,13.73
2022-10-20T12:17:42.258Z,13.57
2022-10-20T12:20:21.145Z,13.98
2022-10-20T12:23:02.558Z,13.63
2022-10-20T12:25:41.403Z,12.45
2022-10-20T12:28:20.589Z,14.77
2022-10-20T12:30:59.265Z,12.38
2022-10-20T12:34:00.016Z,15.00
2022-10-20T12:36:31.916Z,15.65
2022-10-20T12:39:20.199Z,14.63
2022-10-20T12:42:02.320Z,12.95
2022-10-20T12:44:39.211Z,14.27
2022-10-20T12:47:08.157Z,14.43
2022-10-20T12:49:46.145Z,14.32
2022-10-20T12:52:20.949Z,14.23
2022-10-20T12:55:13.221Z,13.63
2022-10-20T12:57:45.016Z,12.68
2022-10-20T13:00:26.449Z,14.73
2022-10-20T13:02:54.747Z,13.25
2022-10-20T13:05:42.944Z,14.18
2022-10-20T13:08:24.973Z,15.05
2022-10-20T13:10:53.993Z,14.20
2022-10-20T13:13:20.617Z,14.80
2022-10-20T13:15:53.282Z,14.48
2022-10-20T13:18:33.851Z,13.73
2022-10-20T13:21:03.127Z,13.40
2022-10-20T13:23:39.536Z,14.05
2022-10-20T13:26:26.141Z,13.88
2022-10-20T13:28:55.130Z,14.40
2022-10-20T13:31:21.765Z,12.55
2022-10-20T13:34:07.778Z,12.38
2022-10-20T13:36:46.657Z,13.68
2022-10-20T13:39:26.267Z,14.70
2022-10-20T13:41:55.964Z,13.18
2022-10-20T13:44:32.026Z,13.90
2022-10-20T13:47:05.417Z,13.40
2022-10-20T13:49:41.971Z,14.88
2022-10-20T13:52:16.007Z,12.70
2022-10-20T13:54:46.882Z,13.95
2022-10-20T13:57:55.777Z,12.93
2022-10-20T14:00:25.469Z,12.60
2022-10-20T14:03:49.243Z,11.77
2022-10-20T14:06:31.399Z,11.63
2022-10-20T14:09:11.255Z,12.45
2022-10-20T14:11:39.368Z,11.98
2022-10-20T14:14:06.350Z,11.77
2022-10-20T14:16:33.449Z,11.85
2022-10-20T14:19:23.362Z,11.77
2022-10-20T14:21:50.906Z,9.80
2022-10-20T14:24:26.443Z,12.85
2022-10-20T14:29:24.726Z,11.52
2022-10-20T14:31:51.679Z,10.77
2022-10-20T14:34:31.301Z,11.90
2022-10-20T14:36:58.899Z,11.43
2022-10-20T14:43:42.077Z,11.10
2022-10-20T14:46:12.250Z,10.32
2022-10-20T14:48:48.672Z,11.32
2022-10-20T14:51:35.306Z,11.98
2022-10-20T14:54:37.434Z,11.30
2022-10-20T14:57:24.426Z,12.20
2022-10-20T15:00:04.447Z,12.57
2022-10-20T15:02:42.396Z,12.30
2022-10-20T15:05:31.103Z,13.25
2022-10-20T15:08:10.575Z,11.82
2022-10-20T15:10:38.558Z,12.57
2022-10-20T15:13:05.432Z,12.88
2022-10-20T15:15:39.092Z,12.70
2022-10-20T15:18:20.097Z,13.57
2022-10-20T15:20:51.625Z,12.73
2022-10-20T15:23:20.974Z,13.52
2022-10-20T15:25:50.415Z,12.98
2022-10-20T15:28:25.835Z,13.25
2022-10-20T15:30:52.812Z,14.20
2022-10-20T15:33:19.692Z,11.57
2022-10-20T15:35:47.647Z,14.13
2022-10-20T15:38:15.344Z,12.80
2022-10-20T15:40:42.640Z,13.45
2022-10-20T15:43:14.316Z,14.05
2022-10-20T15:45:54.583Z,14.30
2022-10-20T15:48:25.892Z,13.80
2022-10-20T15:50:58.990Z,14.70
2022-10-20T15:53:25.748Z,15.48
2022-10-20T15:55:52.476Z,13.35
2022-10-20T15:58:19.214Z,14.38
2022-10-20T16:00:46.125Z,13.77
2022-10-20T16:03:17.788Z,15.13
2022-10-20T16:05:46.123Z,13.32
2022-10-20T16:08:12.827Z,15.32
2022-10-20T16:10:39.851Z,15.27
2022-10-20T16:13:06.655Z,15.27
2022-10-20T16:15:33.321Z,15.93
2022-10-20T16:18:00.051Z,15.60
2022-10-20T16:20:26.978Z,15.52
2022-10-20T16:22:54.035Z,15.50
2022-10-20T16:25:20.787Z,15.48
2022-10-20T16:27:49.712Z,15.23
2022-10-20T16:30:16.790Z,15.30
2022-10-20T16:32:43.455Z,15.73
2022-10-20T16:35:10.372Z,14.90
2022-10-20T16:37:37.299Z,16.63
2022-10-20T16:40:04.604Z,15.77
2022-10-20T16:42:31.530Z,16.05
2022-10-20T16:44:58.693Z,16.98
2022-10-20T16:47:26.312Z,16.00
2022-10-20T16:49:53.450Z,15.27
2022-10-20T16:52:20.299Z,16.55
2022-10-20T16:54:47.125Z,16.73
2022-10-20T16:57:14.239Z,17.63
2022-10-20T16:59:42.695Z,18.27
2022-10-20T17:02:12.839Z,17.05
2022-10-20T17:04:39.523Z,17.08
2022-10-20T17:07:08.590Z,17.15
2022-10-20T17:09:35.336Z,15.98
2022-10-20T17:12:02.029Z,15.93
2022-10-20T17:14:31.099Z,16.20
2022-10-20T17:16:59.620Z,16.48
2022-10-20T17:19:27.072Z,14.32
2022-10-20T17:21:56.070Z,17.00
2022-10-20T17:24:24.428Z,16.15
2022-10-20T17:26:51.337Z,17.77
2022-10-20T17:29:22.322Z,16.08
2022-10-20T17:31:51.969Z,16.38
2022-10-20T17:34:18.762Z,16.67
2022-10-20T17:36:45.438Z,17.10
2022-10-20T17:39:15.612Z,16.13
2022-10-20T17:41:42.798Z,16.85
2022-10-20T17:44:10.020Z,16.80
2022-10-20T17:46:38.961Z,16.77
2022-10-20T17:49:08.640Z,16.52
2022-10-20T17:51:35.377Z,16.60
2022-10-20T17:54:02.866Z,16.02
2022-10-20T17:56:32.323Z,16.80
2022-10-20T17:59:05.472Z,17.08
2022-10-20T18:01:40.277Z,16.40
2022-10-20T18:04:10.921Z,17.02
2022-10-20T18:06:38.156Z,16.90
2022-10-20T18:09:08.201Z,17.13
2022-10-20T18:11:38.148Z,16.35
2022-10-20T18:14:07.339Z,16.83
2022-10-20T18:16:36.873Z,15.65
2022-10-20T18:19:13.125Z,16.55
2022-10-20T18:21:39.903Z,14.55
2022-10-20T18:24:10.431Z,16.55
2022-10-20T18:26:37.563Z,15.35
2022-10-20T18:29:07.189Z,15.68
2022-10-20T18:31:36.330Z,16.52
2022-10-20T18:34:07.136Z,16.20
2022-10-20T18:36:37.952Z,16.80
2022-10-20T18:39:07.832Z,15.70
2022-10-20T18:41:38.072Z,16.75
2022-10-20T18:44:08.172Z,17.13
2022-10-20T18:46:35.540Z,17.58
2022-10-20T18:49:04.605Z,15.68
2022-10-20T18:51:32.278Z,17.33
2022-10-20T18:54:01.154Z,16.40
2022-10-20T18:56:30.279Z,17.20
2022-10-20T18:59:02.585Z,16.63
2022-10-20T19:01:31.855Z,17.23
2022-10-20T19:04:00.254Z,17.15
2022-10-20T19:06:30.330Z,17.02
2022-10-20T19:09:02.605Z,16.10
2022-10-20T19:11:32.644Z,17.23
2022-10-20T19:13:59.930Z,17.13
2022-10-20T19:16:30.003Z,17.73
2022-10-20T19:18:58.556Z,16.55
2022-10-20T19:21:26.629Z,16.30
2022-10-20T19:24:02.759Z,16.35
2022-10-20T19:26:52.516Z,16.75
2022-10-20T19:29:29.428Z,16.98
2022-10-20T19:31:59.450Z,16.25
2022-10-20T19:34:32.623Z,15.15
2022-10-20T19:37:00.115Z,16.17
2022-10-20T19:39:35.811Z,16.80
2022-10-20T19:42:04.219Z,14.73
2022-10-20T19:44:31.477Z,15.27
2022-10-20T19:46:58.383Z,17.30
2022-10-20T19:49:25.666Z,17.00
2022-10-20T19:51:52.828Z,17.83
2022-10-20T19:54:19.907Z,17.27
2022-10-20T19:56:46.633Z,16.85
2022-10-20T19:59:13.862Z,17.85
2022-10-20T20:01:40.629Z,17.30
2022-10-20T20:04:07.575Z,18.38
2022-10-20T20:06:35.342Z,16.33
2022-10-20T20:09:06.260Z,18.25
2022-10-20T20:11:34.803Z,16.20
2022-10-20T20:14:13.969Z,18.55
2022-10-20T20:16:41.219Z,15.32
2022-10-20T20:19:08.315Z,18.95
2022-10-20T20:21:35.768Z,18.10
2022-10-20T20:24:04.038Z,16.77
2022-10-20T20:26:33.536Z,18.88
2022-10-20T20:29:00.707Z,17.08
2022-10-20T20:31:28.231Z,17.65
2022-10-20T20:33:56.907Z,17.35
2022-10-20T20:36:26.972Z,17.58
2022-10-20T20:38:57.339Z,19.25
2022-10-20T20:41:26.091Z,16.48
2022-10-20T20:43:52.984Z,17.67
2022-10-20T20:46:22.351Z,18.10
2022-10-20T20:48:52.075Z,18.02
2022-10-20T20:51:18.941Z,17.75
2022-10-20T20:53:48.267Z,17.88
2022-10-20T20:56:18.704Z,18.73
2022-10-20T20:58:47.697Z,17.85
2022-10-20T21:01:16.419Z,19.08
2022-10-20T21:03:44.021Z,19.58
2022-10-20T21:06:16.385Z,18.77
2022-10-20T21:08:46.423Z,19.05
2022-10-20T21:11:18.139Z,17.77
2022-10-20T21:13:46.278Z,19.77
2022-10-20T21:16:23.610Z,18.83
2022-10-20T21:18:52.549Z,18.23
2022-10-20T21:21:22.628Z,16.77
2022-10-20T21:23:49.502Z,18.13
2022-10-20T21:26:18.180Z,18.38
2022-10-20T21:28:46.161Z,15.35
2022-10-20T21:31:16.147Z,18.38
2022-10-20T21:33:43.264Z,18.02
2022-10-20T21:36:15.511Z,18.30
2022-10-20T21:38:45.409Z,19.10
2022-10-20T21:41:14.656Z,26.17
2022-10-20T21:43:43.905Z,19.00
2022-10-20T21:46:19.839Z,18.85
2022-10-20T21:48:48.685Z,19.17
2022-10-20T21:51:16.884Z,19.33
2022-10-20T21:53:46.336Z,18.58
2022-10-20T21:56:16.133Z,18.80
2022-10-20T21:58:45.348Z,17.90
2022-10-20T22:01:13.978Z,17.95
2022-10-20T22:03:41.156Z,17.27
2022-10-20T22:06:09.966Z,18.92
2022-10-20T22:08:38.346Z,17.90
2022-10-20T22:11:06.994Z,18.45
2022-10-20T22:13:34.281Z,16.73
2022-10-20T22:16:01.486Z,18.15
2022-10-20T22:18:28.376Z,18.35
2022-10-20T22:20:59.758Z,18.23
2022-10-20T22:23:26.419Z,17.80
2022-10-20T22:25:58.231Z,18.35
2022-10-20T22:28:31.169Z,17.80
2022-10-20T22:31:02.656Z,17.17
2022-10-20T22:33:29.396Z,15.75
2022-10-20T22:35:56.145Z,16.45
2022-10-20T22:38:22.865Z,14.20
2022-10-20T22:40:49.854Z,15.40
2022-10-20T22:43:16.720Z,16.15
2022-10-20T22:45:43.478Z,15.63
2022-10-20T22:48:10.153Z,15.57
2022-10-20T22:50:36.932Z,13.70
2022-10-20T22:53:03.720Z,14.07
2022-10-20T22:55:32.886Z,13.85
2022-10-20T22:57:59.640Z,15.23
2022-10-20T23:00:29.260Z,14.73
2022-10-20T23:02:58.768Z,14.05
2022-10-20T23:05:27.925Z,13.30
2022-10-20T23:07:54.660Z,14.00
2022-10-20T23:10:21.329Z,13.68
2022-10-20T23:12:48.017Z,14.40
2022-10-20T23:15:19.372Z,15.05
2022-10-20T23:17:46.509Z,12.73
2022-10-20T23:20:15.739Z,12.23
2022-10-20T23:22:42.481Z,14.45
2022-10-20T23:25:11.752Z,14.23
2022-10-20T23:27:40.990Z,14.27
2022-10-20T23:30:10.376Z,12.95
2022-10-20T23:32:39.508Z,11.45
2022-10-20T23:35:07.200Z,11.48
2022-10-20T23:37:33.983Z,14.48
2022-10-20T23:40:00.658Z,14.82
2022-10-20T23:42:27.384Z,13.73
2022-10-20T23:44:54.033Z,14.82
2022-10-20T23:47:20.718Z,11.88
2022-10-20T23:49:47.419Z,13.32
2022-10-20T23:52:14.058Z,14.45
2022-10-20T23:54:40.729Z,14.77
2022-10-20T23:57:07.375Z,12.93
2022-10-20T23:59:34.127Z,15.05
